sensor_id;sensor_type;location;lat;lon;timestamp;P1;durP1;ratioP1;P2;durP2;ratioP2
21899;SDS011;11114;50.658;12.704;2024-02-26T17:14:36;25.10;;;22.55;;
21899;SDS011;11114;50.658;12.704;2024-02-26T17:17:24;26.27;;;23.75;;
21899;SDS011;11114;50.658;12.704;2024-02-26T17:20:11;26.15;;;23.45;;
21899;SDS011;11114;50.658;12.704;2024-02-26T17:22:58;28.35;;;25.40;;
21899;SDS011;11114;50.658;12.704;2024-02-26T17:25:45;25.65;;;23.15;;
21899;SDS011;11114;50.658;12.704;2024-02-26T17:28:31;28.55;;;25.65;;
21899;SDS011;11114;50.658;12.704;2024-02-26T17:31:18;32.83;;;29.42;;
21899;SDS011;11114;50.658;12.704;2024-02-26T17:34:05;32.05;;;28.52;;
21899;SDS011;11114;50.658;12.704;2024-02-26T17:36:52;30.63;;;27.35;;
21899;SDS011;11114;50.658;12.704;2024-02-26T17:39:39;27.30;;;24.27;;
21899;SDS011;11114;50.658;12.704;2024-02-26T17:42:28;28.58;;;25.70;;
21899;SDS011;11114;50.658;12.704;2024-02-26T17:45:14;26.85;;;24.23;;
21899;SDS011;11114;50.658;12.704;2024-02-26T17:48:01;26.30;;;23.63;;
21899;SDS011;11114;50.658;12.704;2024-02-26T17:50:47;28.20;;;25.38;;
21899;SDS011;11114;50.658;12.704;2024-02-26T17:53:34;25.48;;;22.98;;
21899;SDS011;11114;50.658;12.704;2024-02-26T17:56:21;26.80;;;23.95;;
21899;SDS011;11114;50.658;12.704;2024-02-26T17:59:08;26.40;;;22.67;;
21899;SDS011;11114;50.658;12.704;2024-02-26T18:01:54;25.55;;;23.15;;
21899;SDS011;11114;50.658;12.704;2024-02-26T18:09:46;24.27;;;21.95;;
21899;SDS011;11114;50.658;12.704;2024-02-26T18:15:45;24.40;;;22.13;;
21899;SDS011;11114;50.658;12.704;2024-02-26T18:18:33;24.48;;;22.02;;
21899;SDS011;11114;50.658;12.704;2024-02-26T18:21:20;24.20;;;21.88;;
21899;SDS011;11114;50.658;12.704;2024-02-26T18:24:08;23.55;;;21.15;;
21899;SDS011;11114;50.658;12.704;2024-02-26T18:26:54;24.40;;;22.10;;
21899;SDS011;11114;50.658;12.704;2024-02-26T18:29:41;24.45;;;21.92;;
21899;SDS011;11114;50.658;12.704;2024-02-26T18:32:27;24.38;;;21.88;;
21899;SDS011;11114;50.658;12.704;2024-02-26T18:35:14;27.38;;;24.45;;
21899;SDS011;11114;50.658;12.704;2024-02-26T18:38:00;26.40;;;23.55;;
21899;SDS011;11114;50.658;12.704;2024-02-26T18:40:48;25.38;;;22.77;;
21899;SDS011;11114;50.658;12.704;2024-02-26T18:43:42;26.55;;;23.77;;
21899;SDS011;11114;50.658;12.704;2024-02-26T18:46:28;27.27;;;24.52;;
21899;SDS011;11114;50.658;12.704;2024-02-26T18:49:15;30.55;;;27.17;;
21899;SDS011;11114;50.658;12.704;2024-02-26T18:52:02;29.42;;;26.27;;
21899;SDS011;11114;50.658;12.704;2024-02-26T18:54:49;29.83;;;26.00;;
21899;SDS011;11114;50.658;12.704;2024-02-26T18:57:36;28.42;;;25.63;;
21899;SDS011;11114;50.658;12.704;2024-02-26T19:00:26;27.00;;;24.13;;
21899;SDS011;11114;50.658;12.704;2024-02-26T19:03:14;26.88;;;24.15;;
21899;SDS011;11114;50.658;12.704;2024-02-26T19:06:00;28.63;;;25.80;;
21899;SDS011;11114;50.658;12.704;2024-02-26T19:08:49;29.98;;;26.52;;
21899;SDS011;11114;50.658;12.704;2024-02-26T19:11:36;29.75;;;26.75;;
21899;SDS011;11114;50.658;12.704;2024-02-26T19:14:23;29.55;;;26.63;;
21899;SDS011;11114;50.658;12.704;2024-02-26T19:17:10;29.17;;;26.20;;
21899;SDS011;11114;50.658;12.704;2024-02-26T19:20:00;24.23;;;21.92;;
21899;SDS011;11114;50.658;12.704;2024-02-26T19:22:47;24.75;;;22.38;;
21899;SDS011;11114;50.658;12.704;2024-02-26T19:25:34;25.13;;;22.73;;
21899;SDS011;11114;50.658;12.704;2024-02-26T19:28:23;23.40;;;21.23;;
21899;SDS011;11114;50.658;12.704;2024-02-26T19:31:10;23.30;;;21.05;;
21899;SDS011;11114;50.658;12.704;2024-02-26T19:33:58;22.67;;;20.58;;
21899;SDS011;11114;50.658;12.704;2024-02-26T19:36:46;22.60;;;20.42;;
21899;SDS011;11114;50.658;12.704;2024-02-26T19:39:33;24.45;;;22.08;;
21899;SDS011;11114;50.658;12.704;2024-02-26T19:42:19;22.67;;;20.48;;
21899;SDS011;11114;50.658;12.704;2024-02-26T19:45:07;22.20;;;20.20;;
21899;SDS011;11114;50.658;12.704;2024-02-26T19:47:55;21.88;;;19.85;;
21899;SDS011;11114;50.658;12.704;2024-02-26T19:50:42;23.90;;;21.60;;
21899;SDS011;11114;50.658;12.704;2024-02-26T19:53:31;23.92;;;21.63;;
21899;SDS011;11114;50.658;12.704;2024-02-26T19:56:18;23.67;;;21.45;;
21899;SDS011;11114;50.658;12.704;2024-02-26T19:59:06;22.70;;;20.70;;
21899;SDS011;11114;50.658;12.704;2024-02-26T20:01:53;23.98;;;21.45;;
21899;SDS011;11114;50.658;12.704;2024-02-26T20:04:40;22.55;;;20.33;;
21899;SDS011;11114;50.658;12.704;2024-02-26T20:07:26;23.30;;;21.10;;
21899;SDS011;11114;50.658;12.704;2024-02-26T20:10:14;23.40;;;21.10;;
21899;SDS011;11114;50.658;12.704;2024-02-26T20:13:01;23.83;;;21.65;;
21899;SDS011;11114;50.658;12.704;2024-02-26T20:15:47;22.13;;;20.13;;
21899;SDS011;11114;50.658;12.704;2024-02-26T20:18:34;22.48;;;20.45;;
21899;SDS011;11114;50.658;12.704;2024-02-26T20:21:22;22.52;;;20.52;;
21899;SDS011;11114;50.658;12.704;2024-02-26T20:24:08;22.52;;;20.52;;
21899;SDS011;11114;50.658;12.704;2024-02-26T20:26:55;21.30;;;19.40;;
21899;SDS011;11114;50.658;12.704;2024-02-26T20:29:42;21.83;;;19.83;;
21899;SDS011;11114;50.658;12.704;2024-02-26T20:32:29;20.98;;;19.17;;
21899;SDS011;11114;50.658;12.704;2024-02-26T20:35:16;21.58;;;19.65;;
21899;SDS011;11114;50.658;12.704;2024-02-26T20:38:03;21.50;;;19.60;;
21899;SDS011;11114;50.658;12.704;2024-02-26T20:40:50;22.73;;;20.52;;
21899;SDS011;11114;50.658;12.704;2024-02-26T20:43:36;22.63;;;20.63;;
21899;SDS011;11114;50.658;12.704;2024-02-26T20:46:23;23.92;;;21.55;;
21899;SDS011;11114;50.658;12.704;2024-02-26T20:49:10;22.83;;;20.73;;
21899;SDS011;11114;50.658;12.704;2024-02-26T20:51:56;22.70;;;20.48;;
21899;SDS011;11114;50.658;12.704;2024-02-26T20:54:43;24.10;;;21.75;;
21899;SDS011;11114;50.658;12.704;2024-02-26T20:57:30;23.15;;;20.92;;
21899;SDS011;11114;50.658;12.704;2024-02-26T21:00:16;23.20;;;20.95;;
21899;SDS011;11114;50.658;12.704;2024-02-26T21:03:08;23.02;;;20.80;;
21899;SDS011;11114;50.658;12.704;2024-02-26T21:05:55;22.98;;;20.88;;
21899;SDS011;11114;50.658;12.704;2024-02-26T21:08:43;23.80;;;21.58;;
